createdAt,value
2019-03-20T00:00:07.282Z,4.20
2019-03-20T00:02:53.118Z,4.20
2019-03-20T00:05:37.727Z,4.20
2019-03-20T00:08:22.208Z,4.20
2019-03-20T00:11:05.939Z,4.20
2019-03-20T00:13:50.223Z,4.20
2019-03-20T00:16:34.217Z,4.10
2019-03-20T00:19:18.649Z,4.20
2019-03-20T00:22:03.012Z,4.10
2019-03-20T00:24:47.169Z,4.10
2019-03-20T00:27:31.340Z,4.10
2019-03-20T00:30:15.648Z,4.00
2019-03-20T00:32:59.654Z,4.00
2019-03-20T00:35:44.092Z,4.00
2019-03-20T00:38:28.253Z,4.00
2019-03-20T00:41:11.782Z,4.00
2019-03-20T00:43:55.997Z,4.00
2019-03-20T00:46:42.893Z,4.00
2019-03-20T00:49:26.862Z,3.90
2019-03-20T00:54:59.294Z,3.90
2019-03-20T00:57:46.014Z,3.90
2019-03-20T01:00:29.595Z,3.90
2019-03-20T01:03:13.721Z,3.90
2019-03-20T01:06:00.676Z,3.90
2019-03-20T01:08:44.391Z,3.80
2019-03-20T01:11:17.250Z,3.80
2019-03-20T01:14:01.182Z,3.80
2019-03-20T01:16:46.103Z,3.80
2019-03-20T01:19:32.146Z,3.80
2019-03-20T01:22:16.642Z,3.80
2019-03-20T01:25:01.034Z,3.80
2019-03-20T01:27:45.289Z,3.80
2019-03-20T01:30:34.454Z,3.80
2019-03-20T01:33:18.416Z,3.90
2019-03-20T01:36:03.038Z,3.90
2019-03-20T01:38:46.658Z,3.90
2019-03-20T01:41:38.081Z,3.90
2019-03-20T01:44:17.517Z,4.00
2019-03-20T01:47:02.031Z,4.00
2019-03-20T01:49:49.420Z,4.10
2019-03-20T01:52:32.981Z,4.10
2019-03-20T01:55:17.423Z,4.10
2019-03-20T01:58:02.042Z,4.10
2019-03-20T02:00:46.988Z,4.10
2019-03-20T02:03:31.008Z,4.10
2019-03-20T02:06:14.885Z,4.10
2019-03-20T02:08:58.696Z,4.10
2019-03-20T02:11:45.220Z,4.10
2019-03-20T02:14:29.522Z,4.10
2019-03-20T02:17:14.474Z,4.10
2019-03-20T02:20:00.346Z,4.10
2019-03-20T02:22:44.422Z,4.20
2019-03-20T02:25:29.147Z,4.20
2019-03-20T02:28:16.260Z,4.20
2019-03-20T02:31:00.548Z,4.10
2019-03-20T02:33:45.485Z,4.20
2019-03-20T02:36:29.390Z,4.20
2019-03-20T02:39:13.092Z,4.20
2019-03-20T02:41:57.412Z,4.20
2019-03-20T02:44:42.043Z,4.20
2019-03-20T02:47:25.837Z,4.20
2019-03-20T02:52:41.018Z,4.20
2019-03-20T02:55:26.130Z,4.20
2019-03-20T02:58:10.155Z,4.30
2019-03-20T03:00:54.398Z,4.30
2019-03-20T03:03:38.595Z,4.40
2019-03-20T03:06:24.386Z,4.40
2019-03-20T03:09:08.629Z,4.40
2019-03-20T03:11:52.962Z,4.30
2019-03-20T03:14:36.684Z,4.40
2019-03-20T03:17:21.187Z,4.40
2019-03-20T03:20:05.376Z,4.40
2019-03-20T03:22:50.189Z,4.40
2019-03-20T03:25:33.970Z,4.40
2019-03-20T03:28:17.874Z,4.40
2019-03-20T03:31:02.625Z,4.40
2019-03-20T03:33:47.135Z,4.50
2019-03-20T03:36:31.687Z,4.40
2019-03-20T03:39:18.479Z,4.50
2019-03-20T03:42:02.059Z,4.60
2019-03-20T03:44:46.491Z,4.50
2019-03-20T03:47:35.070Z,4.60
2019-03-20T03:50:18.573Z,4.60
2019-03-20T03:53:04.441Z,4.60
2019-03-20T03:55:48.780Z,4.50
2019-03-20T03:58:33.019Z,4.50
2019-03-20T04:01:17.694Z,4.60
2019-03-20T04:04:01.609Z,4.60
2019-03-20T04:06:45.521Z,4.60
2019-03-20T04:09:29.363Z,4.50
2019-03-20T04:12:01.655Z,4.50
2019-03-20T04:14:46.319Z,4.50
2019-03-20T04:17:30.500Z,4.40
2019-03-20T04:20:14.095Z,4.50
2019-03-20T04:22:58.450Z,4.50
2019-03-20T04:25:42.520Z,4.50
2019-03-20T04:28:27.092Z,4.50
2019-03-20T04:31:11.412Z,4.50
2019-03-20T04:33:57.608Z,4.40
2019-03-20T04:36:47.493Z,4.40
2019-03-20T04:39:28.872Z,4.40
2019-03-20T04:42:12.379Z,4.40
2019-03-20T04:44:57.433Z,4.40
2019-03-20T04:47:41.951Z,4.40
2019-03-20T04:50:14.151Z,4.40
2019-03-20T04:52:57.968Z,4.40
2019-03-20T04:55:41.961Z,4.40
2019-03-20T04:58:28.621Z,4.30
2019-03-20T05:01:12.546Z,4.30
2019-03-20T05:03:56.598Z,4.30
2019-03-20T05:06:42.421Z,4.30
2019-03-20T05:09:28.040Z,4.30
2019-03-20T05:12:12.027Z,4.30
2019-03-20T05:14:57.602Z,4.30
2019-03-20T05:17:41.879Z,4.30
2019-03-20T05:20:27.818Z,4.40
2019-03-20T05:23:12.011Z,4.40
2019-03-20T05:25:55.797Z,4.40
2019-03-20T05:28:39.617Z,4.40
2019-03-20T05:31:23.488Z,4.30
2019-03-20T05:34:07.883Z,4.40
2019-03-20T05:36:54.456Z,4.40
2019-03-20T05:39:38.977Z,4.30
2019-03-20T05:42:23.296Z,4.30
2019-03-20T05:45:08.356Z,4.40
2019-03-20T05:47:52.972Z,4.40
2019-03-20T05:50:36.671Z,4.60
2019-03-20T05:53:22.384Z,4.50
2019-03-20T05:56:08.450Z,4.60
2019-03-20T05:58:54.196Z,4.60
2019-03-20T06:01:39.460Z,4.60
2019-03-20T06:04:24.383Z,4.60
2019-03-20T06:07:20.817Z,4.60
2019-03-20T06:09:57.645Z,4.60
2019-03-20T06:12:42.059Z,4.70
2019-03-20T06:15:26.339Z,4.80
2019-03-20T06:18:11.740Z,4.80
2019-03-20T06:20:58.553Z,4.90
2019-03-20T06:23:43.079Z,4.90
2019-03-20T06:26:29.044Z,5.00
2019-03-20T06:29:13.584Z,5.20
2019-03-20T06:31:58.097Z,5.30
2019-03-20T06:34:41.939Z,5.50
2019-03-20T06:37:32.612Z,5.70
2019-03-20T06:40:12.193Z,5.90
2019-03-20T06:42:57.810Z,6.10
2019-03-20T06:45:49.313Z,6.30
2019-03-20T06:48:33.348Z,6.50
2019-03-20T06:51:17.557Z,6.50
2019-03-20T06:54:01.546Z,6.50
2019-03-20T06:56:47.416Z,6.30
2019-03-20T07:02:53.409Z,6.20
2019-03-20T07:05:59.687Z,6.00
2019-03-20T07:08:48.055Z,6.10
2019-03-20T07:11:32.673Z,6.10
2019-03-20T07:14:16.917Z,6.10
2019-03-20T07:17:01.175Z,6.10
2019-03-20T07:19:45.034Z,6.10
2019-03-20T07:22:29.475Z,6.10
2019-03-20T07:25:13.666Z,6.20
2019-03-20T07:27:58.370Z,6.20
2019-03-20T07:30:43.239Z,6.30
2019-03-20T07:33:27.633Z,6.30
2019-03-20T07:36:11.297Z,6.30
2019-03-20T07:38:55.764Z,6.40
2019-03-20T07:41:40.732Z,6.40
2019-03-20T07:44:24.799Z,6.50
2019-03-20T07:47:11.243Z,6.60
2019-03-20T07:49:57.298Z,6.60
2019-03-20T07:52:41.419Z,6.60
2019-03-20T07:55:26.090Z,6.70
2019-03-20T07:58:10.719Z,6.80
2019-03-20T08:00:54.532Z,6.90
2019-03-20T08:03:39.051Z,6.90
2019-03-20T08:06:26.610Z,6.90
2019-03-20T08:09:11.400Z,6.90
2019-03-20T08:11:54.922Z,7.00
2019-03-20T08:14:27.420Z,7.00
2019-03-20T08:17:11.329Z,7.00
2019-03-20T08:19:55.982Z,7.00
2019-03-20T08:22:39.528Z,7.00
2019-03-20T08:25:23.899Z,7.10
2019-03-20T08:28:08.230Z,7.20
2019-03-20T08:33:37.072Z,7.20
2019-03-20T08:36:21.588Z,7.30
2019-03-20T08:39:07.082Z,7.40
2019-03-20T08:41:51.632Z,7.50
2019-03-20T08:44:35.763Z,7.60
2019-03-20T08:47:20.017Z,7.70
2019-03-20T08:50:06.205Z,7.70
2019-03-20T08:52:50.262Z,7.80
2019-03-20T08:55:36.919Z,7.80
2019-03-20T08:58:21.931Z,7.90
2019-03-20T09:01:05.843Z,7.90
2019-03-20T09:03:52.497Z,8.00
2019-03-20T09:06:38.442Z,8.10
2019-03-20T09:09:22.434Z,8.10
2019-03-20T09:11:54.648Z,8.20
2019-03-20T09:14:38.622Z,8.20
2019-03-20T09:17:22.169Z,8.30
2019-03-20T09:20:08.740Z,8.50
2019-03-20T09:22:52.566Z,8.70
2019-03-20T09:25:36.951Z,8.90
2019-03-20T09:28:21.312Z,9.10
2019-03-20T09:30:53.608Z,9.10
2019-03-20T09:33:25.986Z,9.20
2019-03-20T09:36:11.175Z,9.20
2019-03-20T09:38:57.719Z,9.20
2019-03-20T09:41:44.039Z,9.20
2019-03-20T09:44:28.774Z,9.30
2019-03-20T09:47:12.502Z,9.50
2019-03-20T09:49:57.134Z,9.60
2019-03-20T09:52:41.248Z,9.80
2019-03-20T09:55:24.879Z,9.80
2019-03-20T09:58:11.851Z,9.80
2019-03-20T10:00:55.199Z,9.80
2019-03-20T10:03:39.695Z,9.80
2019-03-20T10:06:23.637Z,9.80
2019-03-20T10:09:08.573Z,9.80
2019-03-20T10:11:53.189Z,9.80
2019-03-20T10:14:37.023Z,9.80
2019-03-20T10:17:21.322Z,9.80
2019-03-20T10:20:05.666Z,9.80
2019-03-20T10:22:51.657Z,9.80
2019-03-20T10:25:44.082Z,9.80
2019-03-20T10:28:21.891Z,9.80
2019-03-20T10:31:05.695Z,9.90
2019-03-20T10:33:51.511Z,9.90
2019-03-20T10:36:38.329Z,9.90
2019-03-20T10:39:21.926Z,9.90
2019-03-20T10:42:08.428Z,10.00
2019-03-20T10:47:54.765Z,10.20
2019-03-20T10:50:38.694Z,10.30
2019-03-20T10:53:22.320Z,10.40
2019-03-20T10:56:08.921Z,10.40
2019-03-20T10:58:53.562Z,10.30
2019-03-20T11:01:42.427Z,10.20
2019-03-20T11:04:25.175Z,10.20
2019-03-20T11:07:09.348Z,10.30
2019-03-20T11:09:53.290Z,10.40
2019-03-20T11:12:37.376Z,10.40
2019-03-20T11:15:21.646Z,10.40
2019-03-20T11:18:07.942Z,10.50
2019-03-20T11:20:53.658Z,10.50
2019-03-20T11:23:38.423Z,10.50
2019-03-20T11:26:25.394Z,10.50
2019-03-20T11:29:09.971Z,10.50
2019-03-20T11:31:53.922Z,10.50
2019-03-20T11:34:39.407Z,10.70
2019-03-20T11:37:26.865Z,10.70
2019-03-20T11:40:14.513Z,10.60
2019-03-20T11:43:05.229Z,10.60
2019-03-20T11:45:49.083Z,10.70
2019-03-20T11:48:33.498Z,10.70
2019-03-20T11:51:17.794Z,10.70
2019-03-20T11:54:01.804Z,10.70
2019-03-20T11:56:45.961Z,10.60
2019-03-20T11:59:30.167Z,10.60
2019-03-20T12:02:02.476Z,10.60
2019-03-20T12:04:49.029Z,10.60
2019-03-20T12:07:33.745Z,10.50
2019-03-20T12:10:19.061Z,10.50
2019-03-20T12:13:03.731Z,10.50
2019-03-20T12:15:48.431Z,10.50
2019-03-20T12:18:32.992Z,10.50
2019-03-20T12:21:17.035Z,10.40
2019-03-20T12:24:01.733Z,10.30
2019-03-20T12:26:46.079Z,10.20
2019-03-20T12:29:30.008Z,10.20
2019-03-20T12:32:02.219Z,10.00
2019-03-20T12:34:46.283Z,10.00
2019-03-20T12:37:30.213Z,10.00
2019-03-20T12:40:16.356Z,10.00
2019-03-20T12:43:00.323Z,10.00
2019-03-20T12:45:44.600Z,10.00
2019-03-20T12:48:29.283Z,9.90
2019-03-20T12:51:13.842Z,9.90
2019-03-20T12:53:57.726Z,9.90
2019-03-20T12:56:42.506Z,9.90
2019-03-20T12:59:26.374Z,10.00
2019-03-20T13:02:10.626Z,10.00
2019-03-20T13:04:54.836Z,10.00
2019-03-20T13:07:39.321Z,10.00
2019-03-20T13:10:23.770Z,10.00
2019-03-20T13:13:07.467Z,10.10
2019-03-20T13:15:51.656Z,10.10
2019-03-20T13:18:36.526Z,10.10
2019-03-20T13:21:21.359Z,10.10
2019-03-20T13:24:06.642Z,10.10
2019-03-20T13:26:51.048Z,10.10
2019-03-20T13:29:34.966Z,10.10
2019-03-20T13:32:19.364Z,10.20
2019-03-20T13:35:03.328Z,10.20
2019-03-20T13:37:46.816Z,10.20
2019-03-20T13:40:31.330Z,10.20
2019-03-20T13:43:15.399Z,10.20
2019-03-20T13:45:59.646Z,10.20
2019-03-20T13:48:43.546Z,10.20
2019-03-20T13:51:28.367Z,10.30
2019-03-20T13:54:12.611Z,10.30
2019-03-20T13:56:57.270Z,10.30
2019-03-20T13:59:41.395Z,10.30
2019-03-20T14:02:26.841Z,10.40
2019-03-20T14:05:10.422Z,10.50
2019-03-20T14:07:54.930Z,10.60
2019-03-20T14:10:49.648Z,10.50
2019-03-20T14:13:25.180Z,10.60
2019-03-20T14:16:09.927Z,10.60
2019-03-20T14:18:54.227Z,10.60
2019-03-20T14:21:37.768Z,10.70
2019-03-20T14:24:21.536Z,10.70
2019-03-20T14:27:05.237Z,10.70
2019-03-20T14:29:51.076Z,10.70
2019-03-20T14:32:35.402Z,10.70
2019-03-20T14:35:18.997Z,10.70
2019-03-20T14:38:02.920Z,10.80
2019-03-20T14:40:46.689Z,10.80
2019-03-20T14:43:30.895Z,10.80
2019-03-20T14:46:15.402Z,10.80
2019-03-20T14:48:59.346Z,10.80
2019-03-20T14:51:44.471Z,10.80
2019-03-20T14:54:29.058Z,10.80
2019-03-20T14:57:13.561Z,10.70
2019-03-20T14:59:57.567Z,10.80
2019-03-20T15:02:41.408Z,10.80
2019-03-20T15:08:09.300Z,10.70
2019-03-20T15:10:53.322Z,10.80
2019-03-20T15:13:37.273Z,10.70
2019-03-20T15:16:21.002Z,10.70
2019-03-20T15:19:07.076Z,10.70
2019-03-20T15:21:51.045Z,10.70
2019-03-20T15:24:36.286Z,10.70
2019-03-20T15:27:20.681Z,10.70
2019-03-20T15:30:05.874Z,10.70
2019-03-20T15:32:50.343Z,10.70
2019-03-20T15:35:34.206Z,10.70
2019-03-20T15:38:17.882Z,10.70
2019-03-20T15:41:01.897Z,10.60
2019-03-20T15:43:46.593Z,10.60
2019-03-20T15:46:31.099Z,10.60
2019-03-20T15:49:15.094Z,10.60
2019-03-20T15:51:59.588Z,10.60
2019-03-20T15:54:43.164Z,10.60
2019-03-20T15:57:27.004Z,10.60
2019-03-20T16:00:15.335Z,10.50
2019-03-20T16:03:03.939Z,10.60
2019-03-20T16:05:48.103Z,10.50
2019-03-20T16:08:32.568Z,10.50
2019-03-20T16:14:21.398Z,10.50
2019-03-20T16:17:09.611Z,10.50
2019-03-20T16:19:53.315Z,10.60
2019-03-20T16:22:37.190Z,10.60
2019-03-20T16:25:21.437Z,10.60
2019-03-20T16:28:05.894Z,10.60
2019-03-20T16:30:50.031Z,10.60
2019-03-20T16:33:35.293Z,10.60
2019-03-20T16:36:19.776Z,10.60
2019-03-20T16:42:07.888Z,10.60
2019-03-20T16:44:51.994Z,10.50
2019-03-20T16:47:35.882Z,10.50
2019-03-20T16:50:20.139Z,10.40
2019-03-20T16:53:06.601Z,10.40
2019-03-20T16:55:50.387Z,10.40
2019-03-20T16:58:34.715Z,10.40
2019-03-20T17:01:18.547Z,10.30
2019-03-20T17:04:02.933Z,10.30
2019-03-20T17:06:48.168Z,10.30
2019-03-20T17:09:31.945Z,10.20
2019-03-20T17:12:04.892Z,10.20
2019-03-20T17:17:35.389Z,10.20
2019-03-20T17:20:19.744Z,10.20
2019-03-20T17:23:07.557Z,10.20
2019-03-20T17:25:52.824Z,10.20
2019-03-20T17:28:38.424Z,10.20
2019-03-20T17:31:26.289Z,10.10
2019-03-20T17:34:12.067Z,10.10
2019-03-20T17:36:58.405Z,10.10
2019-03-20T17:39:44.765Z,10.10
2019-03-20T17:42:29.205Z,10.10
2019-03-20T17:45:14.952Z,10.10
2019-03-20T17:47:47.949Z,10.10
2019-03-20T17:50:32.598Z,10.10
2019-03-20T17:53:17.838Z,10.00
2019-03-20T17:56:02.366Z,10.00
2019-03-20T17:58:48.159Z,10.00
2019-03-20T18:01:34.486Z,10.00
2019-03-20T18:04:18.769Z,10.00
2019-03-20T18:07:03.066Z,10.00
2019-03-20T18:09:36.795Z,10.00
2019-03-20T18:12:21.653Z,10.00
2019-03-20T18:15:06.971Z,9.90
2019-03-20T18:17:52.435Z,10.00
2019-03-20T18:20:37.901Z,9.90
2019-03-20T18:23:11.227Z,9.90
2019-03-20T18:25:56.225Z,9.90
2019-03-20T18:28:41.246Z,9.90
2019-03-20T18:31:14.831Z,9.90
2019-03-20T18:33:58.856Z,9.90
2019-03-20T18:36:43.386Z,9.90
2019-03-20T18:39:28.171Z,9.90
2019-03-20T18:42:11.919Z,9.90
2019-03-20T18:44:57.762Z,9.90
2019-03-20T18:47:42.623Z,9.90
2019-03-20T18:50:26.914Z,9.90
2019-03-20T18:53:11.662Z,9.90
2019-03-20T18:55:56.177Z,9.80
2019-03-20T18:58:40.304Z,9.90
2019-03-20T19:01:24.325Z,9.90
2019-03-20T19:04:08.193Z,9.80
2019-03-20T19:06:52.404Z,9.90
2019-03-20T19:09:36.348Z,9.90
2019-03-20T19:12:20.892Z,9.90
2019-03-20T19:15:07.460Z,9.90
2019-03-20T19:18:11.049Z,9.90
2019-03-20T19:20:58.023Z,9.90
2019-03-20T19:23:42.040Z,9.90
2019-03-20T19:26:30.891Z,9.90
2019-03-20T19:29:16.547Z,9.80
2019-03-20T19:35:02.628Z,9.80
2019-03-20T19:37:47.738Z,9.80
2019-03-20T19:40:34.175Z,9.80
2019-03-20T19:43:18.361Z,9.80
2019-03-20T19:46:04.855Z,9.80
2019-03-20T19:48:40.544Z,9.80
2019-03-20T19:51:25.374Z,9.80
2019-03-20T19:54:15.857Z,9.80
2019-03-20T19:57:00.010Z,9.80
2019-03-20T19:59:43.778Z,9.80
2019-03-20T20:02:32.078Z,9.80
2019-03-20T20:05:19.284Z,9.80
2019-03-20T20:07:52.134Z,9.80
2019-03-20T20:10:36.788Z,9.80
2019-03-20T20:16:32.179Z,9.80
2019-03-20T20:19:19.881Z,9.80
2019-03-20T20:22:04.444Z,9.80
2019-03-20T20:24:50.306Z,9.80
2019-03-20T20:27:34.402Z,9.80
2019-03-20T20:30:20.806Z,9.80
2019-03-20T20:33:04.867Z,9.80
2019-03-20T20:35:49.694Z,9.80
2019-03-20T20:38:34.487Z,9.80
2019-03-20T20:41:19.592Z,9.80
2019-03-20T20:44:06.542Z,9.80
2019-03-20T20:46:50.972Z,9.80
2019-03-20T20:49:35.470Z,9.80
2019-03-20T20:52:20.224Z,9.80
2019-03-20T20:55:05.727Z,9.80
2019-03-20T20:57:56.717Z,9.80
2019-03-20T21:00:41.033Z,9.80
2019-03-20T21:03:26.344Z,9.80
2019-03-20T21:06:12.207Z,9.80
2019-03-20T21:08:57.603Z,9.80
2019-03-20T21:11:41.597Z,9.80
2019-03-20T21:20:33.972Z,9.80
2019-03-20T21:26:19.694Z,9.80
2019-03-20T21:29:28.695Z,9.80
2019-03-20T21:32:17.241Z,9.80
2019-03-20T21:35:21.250Z,9.80
2019-03-20T21:38:12.504Z,9.80
2019-03-20T21:41:18.316Z,9.80
2019-03-20T21:44:39.398Z,9.80
2019-03-20T21:57:52.024Z,9.80
2019-03-20T22:10:16.999Z,9.80
2019-03-20T22:16:29.050Z,9.80
2019-03-20T22:19:38.810Z,9.80
2019-03-20T22:22:52.386Z,9.80
2019-03-20T22:26:05.186Z,9.80
2019-03-20T22:35:06.376Z,9.70
2019-03-20T22:41:38.297Z,9.70
2019-03-20T22:44:26.395Z,9.80
2019-03-20T22:47:38.445Z,9.70
2019-03-20T22:50:30.750Z,9.70
2019-03-20T23:00:02.732Z,9.70
2019-03-20T23:02:50.494Z,9.70
2019-03-20T23:05:38.856Z,9.70
2019-03-20T23:08:23.891Z,9.70
2019-03-20T23:14:18.789Z,9.70
2019-03-20T23:19:51.180Z,9.70
2019-03-20T23:25:42.039Z,9.80
2019-03-20T23:28:27.396Z,9.80
2019-03-20T23:31:11.636Z,9.80
2019-03-20T23:33:58.210Z,9.70
2019-03-20T23:40:03.088Z,9.70
2019-03-20T23:42:50.843Z,9.70
2019-03-20T23:48:40.055Z,9.80
2019-03-20T23:51:25.762Z,9.70
2019-03-20T23:54:12.469Z,9.70
2019-03-20T23:57:01.474Z,9.70
